Time;durP1;ratioP1;P1;durP2;ratioP2;P2;SDS_P1;SDS_P2;PMS_P1;PMS_P2;Temp;Humidity;BMP_temperature;BMP_pressure;BME280_temperature;BME280_humidity;BME280_pressure;Samples;Min_cycle;Max_cycle;Signal;HPM_P1;HPM_P2
2021/01/02 00:02:24;;;;;;;;;;;6.90;78.20;;;;;;4970968;28;117692;-85
2021/01/02 00:04:52;;;;;;;;;;;6.90;78.30;;;;;;4969410;28;119396;-85
2021/01/02 00:07:27;;;;;;;;;;;6.90;78.20;;;;;;4969301;28;120714;-85
2021/01/02 00:09:56;;;;;;;;;;;6.90;78.20;;;;;;4969816;28;117402;-85
2021/01/02 00:12:31;;;;;;;;;;;6.90;78.10;;;;;;4953526;28;117893;-85
2021/01/02 00:14:56;;;;;;;;;;;6.90;78.20;;;;;;4969101;28;120568;-86
2021/01/02 00:17:30;;;;;;;;;;;6.90;78.20;;;;;;4987234;28;118083;-86
2021/01/02 00:20:02;;;;;;;;;;;6.90;78.20;;;;;;4969909;28;117617;-85
2021/01/02 00:22:41;;;;;;;;;;;6.90;78.20;;;;;;4970407;28;117885;-85
2021/01/02 00:25:10;;;;;;;;;;;6.90;78.20;;;;;;4952769;28;120714;-85
2021/01/02 00:27:54;;;;;;;;;;;6.90;78.10;;;;;;4952989;28;119990;-85
2021/01/02 00:30:23;;;;;;;;;;;6.80;78.10;;;;;;4953604;28;117822;-85
2021/01/02 00:33:03;;;;;;;;;;;6.90;78.20;;;;;;4970173;28;117673;-85
2021/01/02 00:35:28;;;;;;;;;;;6.90;78.80;;;;;;4952340;28;120765;-86
2021/01/02 00:37:57;;;;;;;;;;;6.80;78.20;;;;;;4951906;28;119326;-85
2021/01/02 00:40:22;;;;;;;;;;;6.80;78.20;;;;;;4969405;28;117558;-85
2021/01/02 00:42:48;;;;;;;;;;;6.90;78.20;;;;;;4953725;28;117829;-85
2021/01/02 00:45:18;;;;;;;;;;;6.90;78.30;;;;;;4952332;28;121604;-85
2021/01/02 00:47:43;;;;;;;;;;;6.90;78.20;;;;;;4952549;28;118901;-86
2021/01/02 00:50:11;;;;;;;;;;;6.90;78.10;;;;;;4952641;28;117595;-86
2021/01/02 00:52:42;;;;;;;;;;;6.90;78.20;;;;;;4953200;28;117744;-85
2021/01/02 00:55:20;;;;;;;;;;;6.90;78.30;;;;;;4968572;28;120626;-85
2021/01/02 00:57:53;;;;;;;;;;;6.90;78.20;;;;;;4968540;28;119854;-86
2021/01/02 01:00:19;;;;;;;;;;;6.90;78.20;;;;;;4952620;28;117457;-85
2021/01/02 01:03:00;;;;;;;;;;;6.80;78.20;;;;;;4952787;28;117847;-85
2021/01/02 01:05:26;;;;;;;;;;;6.80;78.20;;;;;;4952280;28;119911;-85
2021/01/02 01:07:55;;;;;;;;;;;6.90;78.30;;;;;;4952110;28;119932;-85
2021/01/02 01:10:21;;;;;;;;;;;6.90;78.20;;;;;;4952449;28;117665;-85
2021/01/02 01:12:47;;;;;;;;;;;6.90;78.20;;;;;;4969800;28;117399;-85
2021/01/02 01:15:12;;;;;;;;;;;6.80;78.80;;;;;;4951911;28;119103;-85
2021/01/02 01:17:42;;;;;;;;;;;6.80;78.20;;;;;;4968392;28;117416;-85
2021/01/02 01:20:08;;;;;;;;;;;6.80;78.20;;;;;;4953004;28;117481;-85
2021/01/02 01:22:34;;;;;;;;;;;6.80;78.20;;;;;;4953288;28;117425;-85
2021/01/02 01:25:04;;;;;;;;;;;6.90;78.10;;;;;;4951854;28;120473;-86
2021/01/02 01:27:48;;;;;;;;;;;6.80;78.20;;;;;;4951340;28;117960;-85
2021/01/02 01:30:14;;;;;;;;;;;6.90;78.10;;;;;;4968496;28;117313;-86
2021/01/02 01:32:41;;;;;;;;;;;6.90;78.20;;;;;;4953145;28;117618;-86
2021/01/02 01:35:07;;;;;;;;;;;6.80;78.20;;;;;;4968160;28;117551;-85
2021/01/02 01:37:33;;;;;;;;;;;6.80;78.20;;;;;;4968011;28;117653;-86
2021/01/02 01:39:59;;;;;;;;;;;6.80;78.20;;;;;;4968671;28;117600;-85
2021/01/02 01:42:36;;;;;;;;;;;6.80;78.20;;;;;;4952810;28;117447;-85
2021/01/02 01:45:14;;;;;;;;;;;6.80;78.20;;;;;;4951806;28;120901;-86
2021/01/02 01:47:40;;;;;;;;;;;6.80;78.20;;;;;;4967730;28;119081;-85
2021/01/02 01:50:18;;;;;;;;;;;6.80;78.20;;;;;;4968034;28;117671;-86
2021/01/02 01:53:05;;;;;;;;;;;6.80;78.20;;;;;;4968161;28;117981;-86
2021/01/02 01:55:35;;;;;;;;;;;6.80;78.20;;;;;;4951385;28;121273;-85
2021/01/02 01:58:11;;;;;;;;;;;6.80;78.20;;;;;;4951321;28;120158;-85
2021/01/02 02:00:46;;;;;;;;;;;6.80;78.20;;;;;;4952228;28;117472;-85
2021/01/02 02:03:21;;;;;;;;;;;6.80;78.20;;;;;;4952447;28;117646;-85
2021/01/02 02:05:49;;;;;;;;;;;6.80;78.20;;;;;;4950970;28;120253;-85
2021/01/02 02:08:14;;;;;;;;;;;6.80;78.20;;;;;;4967838;28;117964;-86
2021/01/02 02:10:41;;;;;;;;;;;6.80;78.20;;;;;;4951489;28;117483;-86
2021/01/02 02:13:11;;;;;;;;;;;6.80;78.20;;;;;;4986826;28;117783;-86
2021/01/02 02:15:42;;;;;;;;;;;6.80;78.20;;;;;;4951126;28;120018;-86
2021/01/02 02:18:08;;;;;;;;;;;6.80;78.20;;;;;;4950338;28;119162;-86
2021/01/02 02:20:34;;;;;;;;;;;6.80;78.20;;;;;;4968102;28;117329;-86
2021/01/02 02:23:06;;;;;;;;;;;6.80;78.20;;;;;;4952204;28;117450;-86
2021/01/02 02:25:36;;;;;;;;;;;6.80;78.20;;;;;;4950748;28;120127;-85
2021/01/02 02:28:01;;;;;;;;;;;6.80;78.20;;;;;;4950835;28;119836;-85
2021/01/02 02:30:29;;;;;;;;;;;6.80;78.20;;;;;;4951515;28;117533;-85
2021/01/02 02:32:55;;;;;;;;;;;6.80;78.20;;;;;;4951975;28;117835;-85
2021/01/02 02:35:20;;;;;;;;;;;6.80;78.20;;;;;;4950866;28;120403;-85
2021/01/02 02:37:50;;;;;;;;;;;6.80;78.20;;;;;;4950659;28;118535;-85
2021/01/02 02:40:19;;;;;;;;;;;6.80;78.20;;;;;;4951342;28;117831;-85
2021/01/02 02:42:55;;;;;;;;;;;6.80;78.20;;;;;;4951868;28;117883;-85
2021/01/02 02:45:21;;;;;;;;;;;6.80;78.30;;;;;;4950543;28;120659;-86
2021/01/02 02:47:47;;;;;;;;;;;6.80;78.30;;;;;;4950759;28;119498;-85
2021/01/02 02:50:16;;;;;;;;;;;6.80;78.20;;;;;;4967735;28;117564;-85
2021/01/02 02:52:41;;;;;;;;;;;6.80;78.30;;;;;;4951814;28;117458;-85
2021/01/02 02:55:07;;;;;;;;;;;6.80;78.30;;;;;;4950533;28;118672;-85
2021/01/02 02:57:33;;;;;;;;;;;6.80;78.20;;;;;;4950286;28;120183;-85
2021/01/02 02:59:58;;;;;;;;;;;6.80;78.30;;;;;;4951121;28;117501;-85
2021/01/02 03:02:25;;;;;;;;;;;6.80;78.30;;;;;;4951752;28;117516;-85
2021/01/02 03:04:51;;;;;;;;;;;6.80;78.30;;;;;;4966865;28;117468;-85
2021/01/02 03:07:16;;;;;;;;;;;6.80;78.20;;;;;;4949726;28;119987;-85
2021/01/02 03:09:42;;;;;;;;;;;6.80;78.30;;;;;;4967161;28;117917;-86
2021/01/02 03:12:07;;;;;;;;;;;6.80;78.40;;;;;;4951587;28;117746;-85
2021/01/02 03:14:33;;;;;;;;;;;6.80;78.30;;;;;;4950268;28;118633;-85
2021/01/02 03:16:59;;;;;;;;;;;6.80;78.30;;;;;;4966431;28;119279;-86
2021/01/02 03:19:27;;;;;;;;;;;6.80;78.30;;;;;;4950832;28;117541;-85
2021/01/02 03:21:53;;;;;;;;;;;6.80;78.20;;;;;;4952043;28;117481;-86
2021/01/02 03:24:18;;;;;;;;;;;6.80;78.20;;;;;;4953676;28;121645;-86
2021/01/02 03:26:44;;;;;;;;;;;6.80;78.40;;;;;;4969809;28;120553;-85
2021/01/02 03:29:10;;;;;;;;;;;6.80;78.30;;;;;;4954334;28;117787;-85
2021/01/02 03:31:35;;;;;;;;;;;6.80;78.40;;;;;;4954198;28;117949;-85
2021/01/02 03:34:01;;;;;;;;;;;6.80;78.30;;;;;;4953441;28;117362;-85
2021/01/02 03:36:26;;;;;;;;;;;6.80;78.30;;;;;;4953419;28;118552;-85
2021/01/02 03:38:53;;;;;;;;;;;6.80;78.30;;;;;;4953840;28;117616;-86
2021/01/02 03:41:18;;;;;;;;;;;6.80;78.40;;;;;;4954725;28;117551;-86
2021/01/02 03:43:44;;;;;;;;;;;6.80;78.30;;;;;;4953246;28;119253;-85
2021/01/02 03:46:09;;;;;;;;;;;6.80;78.30;;;;;;4969953;28;117634;-85
2021/01/02 03:48:35;;;;;;;;;;;6.80;78.30;;;;;;4954130;28;118033;-85
2021/01/02 03:51:00;;;;;;;;;;;6.80;78.40;;;;;;4953960;28;117501;-85
2021/01/02 03:53:26;;;;;;;;;;;6.80;78.30;;;;;;4953113;28;119775;-85
2021/01/02 03:55:52;;;;;;;;;;;6.80;78.30;;;;;;4952706;28;119481;-85
2021/01/02 03:58:17;;;;;;;;;;;6.80;78.40;;;;;;4986810;28;117583;-85
2021/01/02 04:00:43;;;;;;;;;;;6.80;78.30;;;;;;4970579;28;117911;-86
2021/01/02 04:03:09;;;;;;;;;;;6.80;78.30;;;;;;4952969;28;120327;-85
2021/01/02 04:05:34;;;;;;;;;;;6.80;78.30;;;;;;4953212;28;120195;-86
2021/01/02 04:08:00;;;;;;;;;;;6.80;78.40;;;;;;4954208;28;117482;-85
2021/01/02 04:10:26;;;;;;;;;;;6.80;78.60;;;;;;4954100;28;117937;-86
2021/01/02 04:12:51;;;;;;;;;;;6.80;78.30;;;;;;4953426;28;120317;-85
2021/01/02 04:15:17;;;;;;;;;;;6.70;78.30;;;;;;4952782;28;119095;-86
2021/01/02 04:17:43;;;;;;;;;;;6.80;78.30;;;;;;4953640;28;117299;-86
2021/01/02 04:20:09;;;;;;;;;;;6.80;78.30;;;;;;4953258;28;117458;-86
2021/01/02 04:22:34;;;;;;;;;;;6.80;78.30;;;;;;4952620;28;119649;-86
2021/01/02 04:25:00;;;;;;;;;;;6.80;78.30;;;;;;4952851;28;120349;-85
2021/01/02 04:27:26;;;;;;;;;;;6.80;78.30;;;;;;4953666;28;117532;-85
2021/01/02 04:29:51;;;;;;;;;;;6.70;78.40;;;;;;4953732;28;117746;-85
2021/01/02 04:32:17;;;;;;;;;;;6.80;78.30;;;;;;4952612;28;120164;-86
2021/01/02 04:34:42;;;;;;;;;;;6.80;78.40;;;;;;4951732;28;119634;-86
2021/01/02 04:37:08;;;;;;;;;;;6.80;78.30;;;;;;4970029;28;117590;-86
2021/01/02 04:39:33;;;;;;;;;;;6.80;78.40;;;;;;4953594;28;117940;-86
2021/01/02 04:41:59;;;;;;;;;;;6.80;78.40;;;;;;4952461;28;119805;-85
2021/01/02 04:44:24;;;;;;;;;;;6.80;78.30;;;;;;4951857;28;117541;-85
2021/01/02 04:46:50;;;;;;;;;;;6.80;78.40;;;;;;4969432;28;117541;-85
2021/01/02 04:49:15;;;;;;;;;;;6.70;78.30;;;;;;4953102;28;117767;-85
2021/01/02 04:51:41;;;;;;;;;;;6.70;78.30;;;;;;4952018;28;120083;-85
2021/01/02 04:54:06;;;;;;;;;;;6.80;78.30;;;;;;4968621;28;118600;-85
2021/01/02 04:56:32;;;;;;;;;;;6.70;78.30;;;;;;4953135;28;117695;-85
2021/01/02 04:58:59;;;;;;;;;;;6.80;78.30;;;;;;4953336;28;117410;-85
2021/01/02 05:01:25;;;;;;;;;;;6.70;78.30;;;;;;4952541;28;120856;-85
2021/01/02 05:03:50;;;;;;;;;;;6.70;78.30;;;;;;4952368;28;118910;-85
2021/01/02 05:06:22;;;;;;;;;;;6.70;78.30;;;;;;4969540;28;117566;-85
2021/01/02 05:08:51;;;;;;;;;;;6.70;78.30;;;;;;4952662;28;117830;-85
2021/01/02 05:11:17;;;;;;;;;;;6.70;78.30;;;;;;4952077;28;119374;-86
2021/01/02 05:13:42;;;;;;;;;;;6.70;78.30;;;;;;4951892;28;119511;-85
2021/01/02 05:16:18;;;;;;;;;;;6.70;78.40;;;;;;4953002;28;117952;-85
2021/01/02 05:18:59;;;;;;;;;;;6.70;78.30;;;;;;4969092;28;117842;-86
2021/01/02 05:21:25;;;;;;;;;;;6.70;78.30;;;;;;4951846;28;121069;-85
2021/01/02 05:24:09;;;;;;;;;;;6.70;78.30;;;;;;4951898;28;119307;-85
2021/01/02 05:26:35;;;;;;;;;;;6.70;78.30;;;;;;4969113;28;117292;-86
2021/01/02 05:29:17;;;;;;;;;;;6.70;78.40;;;;;;4969432;28;117743;-85
2021/01/02 05:31:50;;;;;;;;;;;6.80;78.40;;;;;;4951634;28;118643;-86
2021/01/02 05:34:16;;;;;;;;;;;6.70;78.30;;;;;;4951212;28;120977;-85
2021/01/02 05:36:42;;;;;;;;;;;6.70;78.40;;;;;;4952475;28;117409;-85
2021/01/02 05:39:08;;;;;;;;;;;6.70;78.30;;;;;;4969231;28;117409;-85
2021/01/02 05:41:50;;;;;;;;;;;6.70;78.40;;;;;;4951630;28;120431;-85
2021/01/02 05:44:16;;;;;;;;;;;6.70;78.30;;;;;;4951664;28;118955;-85
2021/01/02 05:46:53;;;;;;;;;;;6.70;78.40;;;;;;4951955;28;117469;-85
2021/01/02 05:49:32;;;;;;;;;;;6.70;78.40;;;;;;4952404;28;117960;-85
2021/01/02 05:51:58;;;;;;;;;;;6.70;78.40;;;;;;4951343;28;120727;-85
2021/01/02 05:54:27;;;;;;;;;;;6.70;78.40;;;;;;4951227;28;120440;-85
2021/01/02 05:56:57;;;;;;;;;;;6.70;78.40;;;;;;4968790;28;117299;-85
2021/01/02 05:59:27;;;;;;;;;;;6.70;78.40;;;;;;4968278;28;117465;-85
2021/01/02 06:01:52;;;;;;;;;;;6.70;78.40;;;;;;4967696;28;118421;-85
2021/01/02 06:04:18;;;;;;;;;;;6.70;78.50;;;;;;4950954;28;120674;-85
2021/01/02 06:06:44;;;;;;;;;;;6.70;78.40;;;;;;4951931;28;117347;-85
2021/01/02 06:09:10;;;;;;;;;;;6.70;78.50;;;;;;4952258;28;117747;-85
2021/01/02 06:11:35;;;;;;;;;;;6.70;78.50;;;;;;4967170;28;119680;-85
2021/01/02 06:14:01;;;;;;;;;;;6.70;78.40;;;;;;4967493;28;118100;-85
2021/01/02 06:16:26;;;;;;;;;;;6.70;78.40;;;;;;4952066;28;117446;-85
2021/01/02 06:18:52;;;;;;;;;;;6.70;78.50;;;;;;4951963;28;117797;-85
2021/01/02 06:21:18;;;;;;;;;;;6.70;78.50;;;;;;4967297;28;121184;-85
2021/01/02 06:23:44;;;;;;;;;;;6.70;78.40;;;;;;4950382;28;119461;-85
2021/01/02 06:26:10;;;;;;;;;;;6.70;78.40;;;;;;4951867;28;117440;-85
2021/01/02 06:28:36;;;;;;;;;;;6.70;78.40;;;;;;4951950;28;117762;-85
2021/01/02 06:31:06;;;;;;;;;;;6.70;78.40;;;;;;4950672;28;119527;-85
2021/01/02 06:33:31;;;;;;;;;;;6.70;78.40;;;;;;4950602;28;119611;-85
2021/01/02 06:35:57;;;;;;;;;;;6.70;78.40;;;;;;4951399;28;117555;-85
2021/01/02 06:38:23;;;;;;;;;;;6.70;78.40;;;;;;4951948;28;117870;-85
2021/01/02 06:40:49;;;;;;;;;;;6.70;78.40;;;;;;4950861;28;119538;-85
2021/01/02 06:43:15;;;;;;;;;;;6.70;78.50;;;;;;4950920;28;119641;-84
2021/01/02 06:45:44;;;;;;;;;;;6.70;78.40;;;;;;4951672;28;117685;-85
2021/01/02 06:48:12;;;;;;;;;;;6.70;78.40;;;;;;4967406;28;117970;-85
2021/01/02 06:50:38;;;;;;;;;;;6.70;78.40;;;;;;4966279;28;119564;-85
2021/01/02 06:53:22;;;;;;;;;;;6.70;78.50;;;;;;4950539;28;119706;-85
2021/01/02 06:56:13;;;;;;;;;;;6.70;78.40;;;;;;4967565;28;117580;-85
2021/01/02 06:58:46;;;;;;;;;;;6.70;78.40;;;;;;4957963;28;117405;-85
2021/01/02 07:01:11;;;;;;;;;;;6.70;78.30;;;;;;4967208;28;118642;-85
2021/01/02 07:03:37;;;;;;;;;;;6.70;78.40;;;;;;4984908;28;117506;-85
2021/01/02 07:06:19;;;;;;;;;;;6.70;78.40;;;;;;4967856;28;117343;-85
2021/01/02 07:08:45;;;;;;;;;;;6.70;78.50;;;;;;4951257;28;117814;-85
2021/01/02 07:11:25;;;;;;;;;;;6.70;78.40;;;;;;4950293;28;119891;-85
2021/01/02 07:14:09;;;;;;;;;;;6.70;78.40;;;;;;4966121;28;119437;-85
2021/01/02 07:16:45;;;;;;;;;;;6.70;78.40;;;;;;4967215;28;117323;-85
2021/01/02 07:21:58;;;;;;;;;;;6.70;78.30;;;;;;4984271;28;118543;-85
2021/01/02 07:24:27;;;;;;;;;;;6.70;78.50;;;;;;4950118;28;119478;-85
2021/01/02 07:26:56;;;;;;;;;;;6.70;78.40;;;;;;4950830;28;117602;-85
2021/01/02 07:29:22;;;;;;;;;;;6.70;78.40;;;;;;4951248;28;117762;-85
2021/01/02 07:31:48;;;;;;;;;;;6.70;78.50;;;;;;4950285;28;120297;-85
2021/01/02 07:34:17;;;;;;;;;;;6.70;78.40;;;;;;4949893;28;119704;-85
2021/01/02 07:36:43;;;;;;;;;;;6.70;78.30;;;;;;4967404;28;117356;-85
2021/01/02 07:39:08;;;;;;;;;;;6.70;78.40;;;;;;4950182;28;117458;-85
2021/01/02 07:41:35;;;;;;;;;;;6.70;78.40;;;;;;4949959;28;120676;-85
2021/01/02 07:44:00;;;;;;;;;;;6.70;78.50;;;;;;4949999;28;119339;-85
2021/01/02 07:46:26;;;;;;;;;;;6.70;78.50;;;;;;4950768;28;117303;-85
2021/01/02 07:48:54;;;;;;;;;;;6.70;78.40;;;;;;4951093;28;117416;-85
2021/01/02 07:51:20;;;;;;;;;;;6.70;78.40;;;;;;4965909;28;121168;-85
2021/01/02 07:53:53;;;;;;;;;;;6.70;78.40;;;;;;4949761;28;119340;-85
2021/01/02 07:56:31;;;;;;;;;;;6.70;78.30;;;;;;4950912;28;117534;-85
2021/01/02 07:58:57;;;;;;;;;;;6.70;78.40;;;;;;4950898;28;117425;-85
2021/01/02 08:01:22;;;;;;;;;;;6.70;78.40;;;;;;4949719;28;117616;-85
2021/01/02 08:03:48;;;;;;;;;;;6.70;78.50;;;;;;4965671;28;117441;-85
2021/01/02 08:06:15;;;;;;;;;;;6.70;78.50;;;;;;4966790;28;117707;-84
2021/01/02 08:08:41;;;;;;;;;;;6.70;78.50;;;;;;4950850;28;117501;-85
2021/01/02 08:11:14;;;;;;;;;;;6.70;78.40;;;;;;4952924;28;120247;-84
2021/01/02 08:13:40;;;;;;;;;;;6.70;78.30;;;;;;4953672;28;118853;-84
2021/01/02 08:16:05;;;;;;;;;;;6.70;78.50;;;;;;4954929;28;117484;-84
2021/01/02 08:18:31;;;;;;;;;;;6.70;78.40;;;;;;4955549;28;117779;-84
2021/01/02 08:20:59;;;;;;;;;;;6.70;78.40;;;;;;4954549;28;117580;-84
2021/01/02 08:23:25;;;;;;;;;;;6.70;78.50;;;;;;4954811;28;118660;-84
2021/01/02 08:25:50;;;;;;;;;;;6.70;78.30;;;;;;4988281;28;117526;-84
2021/01/02 08:28:17;;;;;;;;;;;6.70;78.30;;;;;;4955690;28;117690;-84
2021/01/02 08:30:42;;;;;;;;;;;6.70;78.40;;;;;;4971197;28;121297;-84
2021/01/02 08:33:08;;;;;;;;;;;6.70;78.30;;;;;;4971881;28;117760;-84
2021/01/02 08:35:40;;;;;;;;;;;6.70;78.40;;;;;;4955460;28;117638;-84
2021/01/02 08:38:08;;;;;;;;;;;6.70;78.30;;;;;;4956404;28;117651;-84
2021/01/02 08:40:38;;;;;;;;;;;6.70;78.30;;;;;;4989495;28;118690;-84
2021/01/02 08:43:03;;;;;;;;;;;6.70;78.30;;;;;;4971598;28;120062;-84
2021/01/02 08:45:29;;;;;;;;;;;6.70;78.50;;;;;;4973448;28;117517;-84
2021/01/02 08:48:04;;;;;;;;;;;6.70;78.50;;;;;;4973246;28;117479;-84
2021/01/02 08:50:30;;;;;;;;;;;6.70;78.50;;;;;;4954906;28;119425;-83
2021/01/02 08:52:55;;;;;;;;;;;6.70;78.60;;;;;;4955032;28;119639;-84
2021/01/02 08:55:21;;;;;;;;;;;6.70;78.40;;;;;;4956579;28;117623;-84
2021/01/02 08:57:50;;;;;;;;;;;6.70;78.40;;;;;;4956943;28;117873;-84
2021/01/02 09:00:17;;;;;;;;;;;6.70;78.50;;;;;;4956009;28;120451;-83
2021/01/02 09:02:44;;;;;;;;;;;6.70;78.50;;;;;;4956526;28;120485;-83
2021/01/02 09:05:13;;;;;;;;;;;6.70;78.40;;;;;;4956607;28;117830;-84
2021/01/02 09:07:39;;;;;;;;;;;6.70;78.40;;;;;;4953991;28;117822;-83
2021/01/02 09:10:19;;;;;;;;;;;6.70;78.40;;;;;;4953004;28;121040;-83
2021/01/02 09:13:05;;;;;;;;;;;6.70;78.50;;;;;;4953301;28;119014;-83
2021/01/02 09:15:40;;;;;;;;;;;6.70;78.50;;;;;;4988268;28;117450;-83
2021/01/02 09:18:05;;;;;;;;;;;6.70;78.50;;;;;;4970361;28;117678;-83
2021/01/02 09:20:31;;;;;;;;;;;6.60;78.40;;;;;;4952542;28;119238;-84
2021/01/02 09:22:56;;;;;;;;;;;6.70;78.50;;;;;;4969610;28;117540;-84
2021/01/02 09:25:31;;;;;;;;;;;6.60;78.40;;;;;;4970531;28;117476;-84
2021/01/02 09:28:09;;;;;;;;;;;6.60;78.50;;;;;;4955156;28;118111;-84
2021/01/02 09:30:34;;;;;;;;;;;6.70;78.60;;;;;;4953082;28;120578;-84
2021/01/02 09:33:00;;;;;;;;;;;6.70;78.60;;;;;;4970097;28;117399;-84
2021/01/02 09:35:25;;;;;;;;;;;6.60;78.60;;;;;;4954272;28;117336;-84
2021/01/02 09:37:51;;;;;;;;;;;6.70;78.60;;;;;;4954784;28;117689;-84
2021/01/02 09:40:20;;;;;;;;;;;6.70;78.60;;;;;;4954006;28;121252;-84
2021/01/02 09:42:46;;;;;;;;;;;6.70;78.60;;;;;;4953589;28;119540;-84
2021/01/02 09:45:11;;;;;;;;;;;6.70;78.70;;;;;;4954978;28;117493;-84
2021/01/02 09:47:37;;;;;;;;;;;6.70;78.60;;;;;;4955558;28;117572;-83
2021/01/02 09:50:03;;;;;;;;;;;6.60;78.50;;;;;;4970208;28;117822;-83
2021/01/02 09:52:28;;;;;;;;;;;6.70;78.60;;;;;;4953757;28;119877;-83
2021/01/02 09:54:54;;;;;;;;;;;6.70;78.50;;;;;;4972071;28;117555;-83
2021/01/02 09:57:19;;;;;;;;;;;6.70;78.60;;;;;;4955875;28;117866;-84
2021/01/02 09:59:45;;;;;;;;;;;6.70;78.70;;;;;;4971135;28;118368;-84
2021/01/02 10:02:10;;;;;;;;;;;6.70;78.70;;;;;;4971475;28;118336;-83
2021/01/02 10:04:46;;;;;;;;;;;6.60;78.60;;;;;;4973216;28;117366;-84
2021/01/02 10:07:12;;;;;;;;;;;6.60;78.50;;;;;;4955892;28;117824;-84
2021/01/02 10:09:38;;;;;;;;;;;6.60;78.60;;;;;;4971409;28;120051;-83
2021/01/02 10:12:04;;;;;;;;;;;6.70;78.70;;;;;;4972289;28;117845;-84
2021/01/02 10:14:30;;;;;;;;;;;6.60;78.60;;;;;;4972428;28;117925;-83
2021/01/02 10:16:56;;;;;;;;;;;6.70;78.60;;;;;;4957187;28;117546;-84
2021/01/02 10:19:21;;;;;;;;;;;6.70;78.70;;;;;;4971528;28;120659;-83
2021/01/02 10:21:47;;;;;;;;;;;6.70;78.60;;;;;;4968491;28;119812;-83
2021/01/02 10:24:13;;;;;;;;;;;6.70;78.60;;;;;;4953100;28;117490;-83
2021/01/02 10:26:38;;;;;;;;;;;6.70;78.60;;;;;;4953386;28;117861;-83
2021/01/02 10:29:04;;;;;;;;;;;6.70;78.50;;;;;;4986094;28;117706;-83
2021/01/02 10:31:30;;;;;;;;;;;6.70;78.50;;;;;;4966972;28;119248;-83
2021/01/02 10:33:55;;;;;;;;;;;6.70;78.50;;;;;;4968841;28;117491;-84
2021/01/02 10:36:21;;;;;;;;;;;6.70;78.60;;;;;;4970169;28;117280;-83
2021/01/02 10:38:46;;;;;;;;;;;6.70;78.60;;;;;;4951685;28;117534;-83
2021/01/02 10:41:13;;;;;;;;;;;6.70;78.50;;;;;;4952287;28;119007;-83
2021/01/02 10:43:38;;;;;;;;;;;6.70;78.60;;;;;;4953474;28;117475;-83
2021/01/02 10:46:06;;;;;;;;;;;6.70;78.60;;;;;;4970190;28;117755;-83
2021/01/02 10:48:31;;;;;;;;;;;6.70;78.70;;;;;;4969177;28;117543;-83
2021/01/02 10:50:57;;;;;;;;;;;6.70;78.60;;;;;;4968335;28;117588;-83
2021/01/02 10:53:22;;;;;;;;;;;6.70;78.70;;;;;;4953259;28;117522;-83
2021/01/02 10:55:48;;;;;;;;;;;6.70;78.60;;;;;;4953140;28;117316;-83
2021/01/02 10:58:14;;;;;;;;;;;6.70;78.60;;;;;;4951809;28;120709;-83
2021/01/02 11:00:40;;;;;;;;;;;6.70;78.60;;;;;;4952460;28;118469;-83
2021/01/02 11:03:05;;;;;;;;;;;6.70;78.50;;;;;;4970362;28;117595;-83
2021/01/02 11:05:31;;;;;;;;;;;6.70;78.50;;;;;;4954067;28;117802;-83
2021/01/02 11:07:56;;;;;;;;;;;6.70;78.50;;;;;;4952923;28;119614;-83
2021/01/02 11:10:22;;;;;;;;;;;6.70;78.70;;;;;;4952929;28;119771;-83
2021/01/02 11:12:48;;;;;;;;;;;6.70;78.70;;;;;;4970970;28;117462;-83
2021/01/02 11:15:13;;;;;;;;;;;6.70;78.70;;;;;;4970539;28;117529;-83
2021/01/02 11:17:39;;;;;;;;;;;6.70;78.70;;;;;;4970019;28;118404;-83
2021/01/02 11:20:09;;;;;;;;;;;6.70;78.70;;;;;;4952921;28;117526;-83
2021/01/02 11:22:34;;;;;;;;;;;6.70;78.60;;;;;;4970986;28;117423;-83
2021/01/02 11:25:00;;;;;;;;;;;6.70;78.60;;;;;;4971983;28;117422;-83
2021/01/02 11:27:25;;;;;;;;;;;6.70;78.70;;;;;;4971484;28;118725;-83
2021/01/02 11:29:51;;;;;;;;;;;6.70;78.80;;;;;;4954623;28;119376;-84
2021/01/02 11:32:16;;;;;;;;;;;6.70;78.80;;;;;;4955458;28;117273;-84
2021/01/02 11:34:42;;;;;;;;;;;6.70;78.70;;;;;;4954094;28;117850;-83
2021/01/02 11:37:11;;;;;;;;;;;6.70;78.70;;;;;;4950668;28;120365;-83
2021/01/02 11:39:36;;;;;;;;;;;6.70;78.70;;;;;;4967326;28;118330;-83
2021/01/02 11:42:03;;;;;;;;;;;6.70;78.70;;;;;;4952271;28;117364;-83
2021/01/02 11:44:28;;;;;;;;;;;6.60;78.70;;;;;;4971435;28;117738;-84
2021/01/02 11:46:55;;;;;;;;;;;6.70;78.70;;;;;;4971190;28;119961;-84
2021/01/02 11:49:21;;;;;;;;;;;6.70;78.80;;;;;;4954710;28;119320;-84
2021/01/02 11:51:48;;;;;;;;;;;6.70;78.70;;;;;;4972015;28;118137;-83
2021/01/02 11:54:13;;;;;;;;;;;6.70;78.80;;;;;;4955976;28;117906;-83
2021/01/02 11:56:39;;;;;;;;;;;6.70;78.80;;;;;;4971508;28;117542;-83
2021/01/02 11:59:05;;;;;;;;;;;6.70;78.70;;;;;;4954690;28;119475;-83
2021/01/02 12:01:37;;;;;;;;;;;6.70;78.70;;;;;;4956120;28;117586;-83
2021/01/02 12:04:03;;;;;;;;;;;6.70;78.70;;;;;;4973185;28;117523;-83
2021/01/02 12:06:29;;;;;;;;;;;6.70;78.70;;;;;;4955208;28;121068;-84
2021/01/02 12:08:55;;;;;;;;;;;6.70;78.80;;;;;;4954612;28;117552;-84
2021/01/02 12:11:24;;;;;;;;;;;6.70;78.70;;;;;;4972948;28;117545;-84
2021/01/02 12:13:50;;;;;;;;;;;6.70;78.60;;;;;;4957052;28;117406;-84
2021/01/02 12:16:15;;;;;;;;;;;6.70;78.70;;;;;;4972584;28;118621;-84
2021/01/02 12:18:41;;;;;;;;;;;6.70;78.70;;;;;;4955994;28;119695;-84
2021/01/02 12:21:06;;;;;;;;;;;6.70;78.70;;;;;;4956218;28;117562;-84
2021/01/02 12:23:32;;;;;;;;;;;6.70;78.70;;;;;;4957232;28;117769;-84
2021/01/02 12:25:58;;;;;;;;;;;6.70;78.70;;;;;;4972851;28;117633;-84
2021/01/02 12:28:24;;;;;;;;;;;6.70;78.70;;;;;;4956669;28;117629;-84
2021/01/02 12:30:49;;;;;;;;;;;6.70;78.70;;;;;;4973866;28;117761;-84
2021/01/02 12:33:15;;;;;;;;;;;6.70;78.80;;;;;;4974247;28;117804;-84
2021/01/02 12:35:40;;;;;;;;;;;6.70;78.70;;;;;;4973440;28;117567;-83
2021/01/02 12:38:06;;;;;;;;;;;6.70;78.60;;;;;;4956789;28;119684;-83
2021/01/02 12:40:31;;;;;;;;;;;6.70;78.70;;;;;;4974849;28;117827;-83
2021/01/02 12:42:57;;;;;;;;;;;6.70;78.70;;;;;;4959066;28;117603;-83
2021/01/02 12:45:23;;;;;;;;;;;6.70;78.70;;;;;;4957979;28;120819;-83
2021/01/02 12:47:48;;;;;;;;;;;6.70;78.70;;;;;;4957399;28;119726;-83
2021/01/02 12:50:14;;;;;;;;;;;6.70;78.90;;;;;;4970981;28;117629;-84
2021/01/02 12:52:40;;;;;;;;;;;6.70;78.80;;;;;;4954542;28;117436;-84
2021/01/02 12:55:06;;;;;;;;;;;6.70;78.70;;;;;;4952867;28;121212;-83
2021/01/02 12:57:31;;;;;;;;;;;6.70;78.70;;;;;;4952728;28;120647;-83
2021/01/02 12:59:57;;;;;;;;;;;6.70;78.70;;;;;;4954167;28;117849;-84
2021/01/02 13:02:23;;;;;;;;;;;6.70;78.80;;;;;;4971511;28;117807;-84
2021/01/02 13:04:49;;;;;;;;;;;6.70;78.80;;;;;;4970316;28;118314;-84
2021/01/02 13:07:14;;;;;;;;;;;6.70;78.70;;;;;;4953258;28;119842;-84
2021/01/02 13:09:40;;;;;;;;;;;6.70;78.70;;;;;;4954208;28;117658;-84
2021/01/02 13:12:06;;;;;;;;;;;6.70;78.70;;;;;;4971229;28;117889;-84
2021/01/02 13:14:32;;;;;;;;;;;6.70;78.70;;;;;;4954326;28;120686;-84
2021/01/02 13:16:59;;;;;;;;;;;6.70;78.70;;;;;;4953804;28;117665;-84
2021/01/02 13:19:24;;;;;;;;;;;6.70;78.70;;;;;;4954813;28;117458;-84
2021/01/02 13:21:56;;;;;;;;;;;6.70;78.70;;;;;;4954608;28;117886;-84
2021/01/02 13:24:21;;;;;;;;;;;6.70;78.70;;;;;;4954647;28;120613;-84
2021/01/02 13:26:51;;;;;;;;;;;6.70;78.80;;;;;;4971539;28;117435;-84
2021/01/02 13:29:17;;;;;;;;;;;6.70;78.60;;;;;;4955603;28;117415;-84
2021/01/02 13:31:43;;;;;;;;;;;6.70;78.70;;;;;;4972972;28;117459;-84
2021/01/02 13:34:08;;;;;;;;;;;6.70;78.70;;;;;;4955692;28;118378;-84
2021/01/02 13:36:35;;;;;;;;;;;6.70;78.60;;;;;;4955439;28;119773;-84
2021/01/02 13:39:00;;;;;;;;;;;6.70;78.70;;;;;;4956457;28;117510;-84
2021/01/02 13:41:26;;;;;;;;;;;6.70;78.70;;;;;;4957651;28;117834;-84
2021/01/02 13:43:52;;;;;;;;;;;6.70;78.70;;;;;;4956037;28;120058;-84
2021/01/02 13:46:17;;;;;;;;;;;6.70;78.70;;;;;;4955793;28;120562;-83
2021/01/02 13:48:43;;;;;;;;;;;6.70;78.70;;;;;;4973232;28;117356;-84
2021/01/02 13:51:11;;;;;;;;;;;6.70;78.70;;;;;;4974823;28;117381;-84
2021/01/02 13:53:37;;;;;;;;;;;6.70;78.60;;;;;;4956993;28;120587;-83
2021/01/02 13:56:02;;;;;;;;;;;6.70;78.60;;;;;;4956765;28;119869;-83
2021/01/02 13:58:28;;;;;;;;;;;6.70;78.70;;;;;;4958241;28;117445;-83
2021/01/02 14:00:53;;;;;;;;;;;6.70;78.60;;;;;;4974953;28;117613;-83
2021/01/02 14:03:19;;;;;;;;;;;6.70;78.70;;;;;;4969879;28;117542;-84
2021/01/02 14:05:44;;;;;;;;;;;6.70;78.70;;;;;;4952479;28;120579;-83
2021/01/02 14:08:10;;;;;;;;;;;6.70;78.60;;;;;;4969956;28;117971;-83
2021/01/02 14:10:36;;;;;;;;;;;6.70;78.70;;;;;;4985803;28;117951;-84
2021/01/02 14:13:01;;;;;;;;;;;6.70;78.70;;;;;;4953663;28;119391;-83
2021/01/02 14:15:27;;;;;;;;;;;6.70;78.60;;;;;;4952901;28;119718;-83
2021/01/02 14:17:52;;;;;;;;;;;6.70;78.60;;;;;;4953611;28;117532;-83
2021/01/02 14:20:18;;;;;;;;;;;6.70;78.60;;;;;;4970145;28;118036;-83
2021/01/02 14:22:44;;;;;;;;;;;6.70;78.70;;;;;;4952268;28;120882;-83